sensor_id;sensor_type;location;lat;lon;timestamp;temperature;humidity
11569;DHT22;5840;46.894;15.542;2023-10-31T00:00:13;16.00;99.90
11569;DHT22;5840;46.894;15.542;2023-10-31T00:02:40;16.00;99.90
11569;DHT22;5840;46.894;15.542;2023-10-31T00:05:07;16.10;99.90
11569;DHT22;5840;46.894;15.542;2023-10-31T00:07:34;16.10;99.90
11569;DHT22;5840;46.894;15.542;2023-10-31T00:10:01;16.10;99.90
11569;DHT22;5840;46.894;15.542;2023-10-31T00:12:30;16.20;99.90
11569;DHT22;5840;46.894;15.542;2023-10-31T00:14:57;16.10;99.90
11569;DHT22;5840;46.894;15.542;2023-10-31T00:17:23;16.20;99.90
11569;DHT22;5840;46.894;15.542;2023-10-31T00:19:50;16.20;99.90
11569;DHT22;5840;46.894;15.542;2023-10-31T00:22:17;16.10;99.90
11569;DHT22;5840;46.894;15.542;2023-10-31T00:24:45;16.00;99.90
11569;DHT22;5840;46.894;15.542;2023-10-31T00:27:12;16.10;99.90
11569;DHT22;5840;46.894;15.542;2023-10-31T00:29:41;16.10;99.90
11569;DHT22;5840;46.894;15.542;2023-10-31T00:32:08;16.20;99.90
11569;DHT22;5840;46.894;15.542;2023-10-31T00:34:35;16.30;99.90
11569;DHT22;5840;46.894;15.542;2023-10-31T00:37:02;16.30;99.90
11569;DHT22;5840;46.894;15.542;2023-10-31T00:39:29;16.30;99.90
11569;DHT22;5840;46.894;15.542;2023-10-31T00:41:56;16.30;99.90
11569;DHT22;5840;46.894;15.542;2023-10-31T00:44:23;16.30;99.90
11569;DHT22;5840;46.894;15.542;2023-10-31T00:46:51;16.20;99.90
11569;DHT22;5840;46.894;15.542;2023-10-31T00:49:18;16.20;99.90
11569;DHT22;5840;46.894;15.542;2023-10-31T00:51:45;16.20;99.90
11569;DHT22;5840;46.894;15.542;2023-10-31T00:54:12;16.20;99.90
11569;DHT22;5840;46.894;15.542;2023-10-31T00:56:39;16.20;99.90
11569;DHT22;5840;46.894;15.542;2023-10-31T00:59:06;16.20;99.90
11569;DHT22;5840;46.894;15.542;2023-10-31T01:01:33;16.30;99.90
11569;DHT22;5840;46.894;15.542;2023-10-31T01:04:02;16.30;99.90
11569;DHT22;5840;46.894;15.542;2023-10-31T01:06:29;16.30;99.90
11569;DHT22;5840;46.894;15.542;2023-10-31T01:08:55;16.30;99.90
11569;DHT22;5840;46.894;15.542;2023-10-31T01:11:22;16.20;99.90
11569;DHT22;5840;46.894;15.542;2023-10-31T01:13:49;16.20;99.90
11569;DHT22;5840;46.894;15.542;2023-10-31T01:16:16;16.20;99.90
11569;DHT22;5840;46.894;15.542;2023-10-31T01:18:43;16.20;99.90
11569;DHT22;5840;46.894;15.542;2023-10-31T01:21:11;16.20;99.90
11569;DHT22;5840;46.894;15.542;2023-10-31T01:23:38;16.20;99.90
11569;DHT22;5840;46.894;15.542;2023-10-31T01:26:05;16.20;99.90
11569;DHT22;5840;46.894;15.542;2023-10-31T01:28:32;16.10;99.90
11569;DHT22;5840;46.894;15.542;2023-10-31T01:30:59;16.10;99.90
11569;DHT22;5840;46.894;15.542;2023-10-31T01:33:26;16.00;99.90
11569;DHT22;5840;46.894;15.542;2023-10-31T01:35:53;16.00;99.90
11569;DHT22;5840;46.894;15.542;2023-10-31T01:38:21;15.80;99.90
11569;DHT22;5840;46.894;15.542;2023-10-31T01:40:49;15.70;99.90
11569;DHT22;5840;46.894;15.542;2023-10-31T01:43:29;15.50;99.90
11569;DHT22;5840;46.894;15.542;2023-10-31T01:45:56;15.30;99.90
11569;DHT22;5840;46.894;15.542;2023-10-31T01:48:24;15.30;99.90
11569;DHT22;5840;46.894;15.542;2023-10-31T01:50:51;15.20;99.90
11569;DHT22;5840;46.894;15.542;2023-10-31T01:53:18;15.20;99.90
11569;DHT22;5840;46.894;15.542;2023-10-31T01:55:47;15.10;99.90
11569;DHT22;5840;46.894;15.542;2023-10-31T01:58:15;15.00;99.90
11569;DHT22;5840;46.894;15.542;2023-10-31T02:00:42;14.90;99.90
11569;DHT22;5840;46.894;15.542;2023-10-31T02:03:09;14.70;99.90
11569;DHT22;5840;46.894;15.542;2023-10-31T02:05:36;14.60;99.90
11569;DHT22;5840;46.894;15.542;2023-10-31T02:08:04;14.50;99.90
11569;DHT22;5840;46.894;15.542;2023-10-31T02:10:33;14.50;99.90
11569;DHT22;5840;46.894;15.542;2023-10-31T02:13:11;14.50;99.90
11569;DHT22;5840;46.894;15.542;2023-10-31T02:15:38;14.60;99.90
11569;DHT22;5840;46.894;15.542;2023-10-31T02:18:05;14.50;99.90
11569;DHT22;5840;46.894;15.542;2023-10-31T02:20:32;14.60;99.90
11569;DHT22;5840;46.894;15.542;2023-10-31T02:23:01;14.70;99.90
11569;DHT22;5840;46.894;15.542;2023-10-31T02:25:28;14.60;99.90
11569;DHT22;5840;46.894;15.542;2023-10-31T02:27:55;14.50;99.90
11569;DHT22;5840;46.894;15.542;2023-10-31T02:30:22;14.40;99.90
11569;DHT22;5840;46.894;15.542;2023-10-31T02:32:50;14.40;99.90
11569;DHT22;5840;46.894;15.542;2023-10-31T02:35:17;14.40;99.90
11569;DHT22;5840;46.894;15.542;2023-10-31T02:37:45;14.40;99.90
11569;DHT22;5840;46.894;15.542;2023-10-31T02:40:14;14.30;99.90
11569;DHT22;5840;46.894;15.542;2023-10-31T02:42:41;14.30;99.90
11569;DHT22;5840;46.894;15.542;2023-10-31T02:45:08;14.20;99.90
11569;DHT22;5840;46.894;15.542;2023-10-31T02:47:35;14.20;99.90
11569;DHT22;5840;46.894;15.542;2023-10-31T02:50:03;14.30;99.90
11569;DHT22;5840;46.894;15.542;2023-10-31T02:52:30;14.30;99.90
11569;DHT22;5840;46.894;15.542;2023-10-31T02:54:57;14.30;99.90
11569;DHT22;5840;46.894;15.542;2023-10-31T02:57:25;14.20;99.90
11569;DHT22;5840;46.894;15.542;2023-10-31T02:59:52;14.10;99.90
11569;DHT22;5840;46.894;15.542;2023-10-31T03:02:19;13.90;99.90
11569;DHT22;5840;46.894;15.542;2023-10-31T03:04:46;13.80;99.90
11569;DHT22;5840;46.894;15.542;2023-10-31T03:07:13;13.80;99.90
11569;DHT22;5840;46.894;15.542;2023-10-31T03:09:40;13.80;99.90
11569;DHT22;5840;46.894;15.542;2023-10-31T03:12:07;13.70;99.90
11569;DHT22;5840;46.894;15.542;2023-10-31T03:14:35;13.80;99.90
11569;DHT22;5840;46.894;15.542;2023-10-31T03:17:02;13.80;99.90
11569;DHT22;5840;46.894;15.542;2023-10-31T03:19:29;13.70;99.90
11569;DHT22;5840;46.894;15.542;2023-10-31T03:21:56;13.70;99.90
11569;DHT22;5840;46.894;15.542;2023-10-31T03:24:23;13.70;99.90
11569;DHT22;5840;46.894;15.542;2023-10-31T03:26:50;13.70;99.90
11569;DHT22;5840;46.894;15.542;2023-10-31T03:29:17;13.70;99.90
11569;DHT22;5840;46.894;15.542;2023-10-31T03:31:46;13.70;99.90
11569;DHT22;5840;46.894;15.542;2023-10-31T03:34:13;13.70;99.90
11569;DHT22;5840;46.894;15.542;2023-10-31T03:36:40;13.70;99.90
11569;DHT22;5840;46.894;15.542;2023-10-31T03:39:07;13.70;99.90
11569;DHT22;5840;46.894;15.542;2023-10-31T03:41:35;13.70;99.90
11569;DHT22;5840;46.894;15.542;2023-10-31T03:44:02;13.70;99.90
11569;DHT22;5840;46.894;15.542;2023-10-31T03:46:29;13.70;99.90
11569;DHT22;5840;46.894;15.542;2023-10-31T03:48:57;13.80;99.90
11569;DHT22;5840;46.894;15.542;2023-10-31T03:51:24;13.80;99.90
11569;DHT22;5840;46.894;15.542;2023-10-31T03:53:51;13.90;99.90
11569;DHT22;5840;46.894;15.542;2023-10-31T03:56:18;13.90;99.90
11569;DHT22;5840;46.894;15.542;2023-10-31T03:58:44;14.00;99.90
11569;DHT22;5840;46.894;15.542;2023-10-31T04:01:11;14.00;99.90
11569;DHT22;5840;46.894;15.542;2023-10-31T04:03:38;14.00;99.90
11569;DHT22;5840;46.894;15.542;2023-10-31T04:06:07;14.00;99.90
11569;DHT22;5840;46.894;15.542;2023-10-31T04:08:34;14.00;99.90
11569;DHT22;5840;46.894;15.542;2023-10-31T04:11:01;14.00;99.90
11569;DHT22;5840;46.894;15.542;2023-10-31T04:13:28;14.00;99.90
11569;DHT22;5840;46.894;15.542;2023-10-31T04:15:55;14.00;99.90
11569;DHT22;5840;46.894;15.542;2023-10-31T04:18:21;14.00;99.90
11569;DHT22;5840;46.894;15.542;2023-10-31T04:20:48;14.00;99.90
11569;DHT22;5840;46.894;15.542;2023-10-31T04:23:17;14.00;99.90
11569;DHT22;5840;46.894;15.542;2023-10-31T04:25:44;14.00;99.90
11569;DHT22;5840;46.894;15.542;2023-10-31T04:28:11;14.00;99.90
11569;DHT22;5840;46.894;15.542;2023-10-31T04:30:39;14.00;99.90
11569;DHT22;5840;46.894;15.542;2023-10-31T04:33:06;14.00;99.90
11569;DHT22;5840;46.894;15.542;2023-10-31T04:35:33;13.90;99.90
11569;DHT22;5840;46.894;15.542;2023-10-31T04:38:00;13.90;99.90
11569;DHT22;5840;46.894;15.542;2023-10-31T04:40:28;13.90;99.90
11569;DHT22;5840;46.894;15.542;2023-10-31T04:42:55;13.90;99.90
11569;DHT22;5840;46.894;15.542;2023-10-31T04:45:22;13.90;99.90
11569;DHT22;5840;46.894;15.542;2023-10-31T04:47:49;13.90;99.90
11569;DHT22;5840;46.894;15.542;2023-10-31T04:50:16;13.90;99.90
11569;DHT22;5840;46.894;15.542;2023-10-31T04:52:43;13.90;99.90
11569;DHT22;5840;46.894;15.542;2023-10-31T04:55:10;13.90;99.90
11569;DHT22;5840;46.894;15.542;2023-10-31T04:57:38;13.90;99.90
11569;DHT22;5840;46.894;15.542;2023-10-31T05:00:06;13.90;99.90
11569;DHT22;5840;46.894;15.542;2023-10-31T05:02:34;13.90;99.90
11569;DHT22;5840;46.894;15.542;2023-10-31T05:05:01;13.90;99.90
11569;DHT22;5840;46.894;15.542;2023-10-31T05:07:28;13.80;99.90
11569;DHT22;5840;46.894;15.542;2023-10-31T05:09:55;13.80;99.90
11569;DHT22;5840;46.894;15.542;2023-10-31T05:12:22;13.80;99.90
11569;DHT22;5840;46.894;15.542;2023-10-31T05:14:51;13.80;99.90
11569;DHT22;5840;46.894;15.542;2023-10-31T05:17:18;13.70;99.90
11569;DHT22;5840;46.894;15.542;2023-10-31T05:19:45;13.70;99.90
11569;DHT22;5840;46.894;15.542;2023-10-31T05:22:12;13.70;99.90
11569;DHT22;5840;46.894;15.542;2023-10-31T05:24:38;13.70;99.90
11569;DHT22;5840;46.894;15.542;2023-10-31T05:27:05;13.70;99.90
11569;DHT22;5840;46.894;15.542;2023-10-31T05:29:34;13.70;99.90
11569;DHT22;5840;46.894;15.542;2023-10-31T05:32:04;13.70;99.90
11569;DHT22;5840;46.894;15.542;2023-10-31T05:34:31;13.70;99.90
11569;DHT22;5840;46.894;15.542;2023-10-31T05:36:58;13.70;99.90
11569;DHT22;5840;46.894;15.542;2023-10-31T05:39:25;13.70;99.90
11569;DHT22;5840;46.894;15.542;2023-10-31T05:41:52;13.70;99.90
11569;DHT22;5840;46.894;15.542;2023-10-31T05:44:19;13.70;99.90
11569;DHT22;5840;46.894;15.542;2023-10-31T05:46:46;13.70;99.90
11569;DHT22;5840;46.894;15.542;2023-10-31T05:49:14;13.70;99.90
11569;DHT22;5840;46.894;15.542;2023-10-31T05:51:41;13.70;99.90
11569;DHT22;5840;46.894;15.542;2023-10-31T05:54:09;13.70;99.90
11569;DHT22;5840;46.894;15.542;2023-10-31T05:56:36;13.70;99.90
11569;DHT22;5840;46.894;15.542;2023-10-31T05:59:03;13.70;99.90
11569;DHT22;5840;46.894;15.542;2023-10-31T06:01:29;13.70;99.90
11569;DHT22;5840;46.894;15.542;2023-10-31T06:03:56;13.80;99.90
11569;DHT22;5840;46.894;15.542;2023-10-31T06:06:25;13.80;99.90
11569;DHT22;5840;46.894;15.542;2023-10-31T06:08:52;13.90;99.90
11569;DHT22;5840;46.894;15.542;2023-10-31T06:11:18;14.00;99.90
11569;DHT22;5840;46.894;15.542;2023-10-31T06:13:45;14.00;99.90
11569;DHT22;5840;46.894;15.542;2023-10-31T06:16:13;13.90;99.90
11569;DHT22;5840;46.894;15.542;2023-10-31T06:18:40;13.90;99.90
11569;DHT22;5840;46.894;15.542;2023-10-31T06:21:07;13.80;99.90
11569;DHT22;5840;46.894;15.542;2023-10-31T06:23:37;13.80;99.90
11569;DHT22;5840;46.894;15.542;2023-10-31T06:26:04;13.80;99.90
11569;DHT22;5840;46.894;15.542;2023-10-31T06:28:31;13.80;99.90
11569;DHT22;5840;46.894;15.542;2023-10-31T06:31:00;13.80;99.90
11569;DHT22;5840;46.894;15.542;2023-10-31T06:33:27;13.80;99.90
11569;DHT22;5840;46.894;15.542;2023-10-31T06:35:54;13.80;99.90
11569;DHT22;5840;46.894;15.542;2023-10-31T06:38:21;13.80;99.90
11569;DHT22;5840;46.894;15.542;2023-10-31T06:40:49;13.80;99.90
11569;DHT22;5840;46.894;15.542;2023-10-31T06:43:16;13.80;99.90
11569;DHT22;5840;46.894;15.542;2023-10-31T06:45:43;13.80;99.90
11569;DHT22;5840;46.894;15.542;2023-10-31T06:48:10;13.80;99.90
11569;DHT22;5840;46.894;15.542;2023-10-31T06:50:37;13.80;99.90
11569;DHT22;5840;46.894;15.542;2023-10-31T06:53:04;13.80;99.90
11569;DHT22;5840;46.894;15.542;2023-10-31T06:55:31;13.80;99.90
11569;DHT22;5840;46.894;15.542;2023-10-31T06:57:59;13.80;99.90
11569;DHT22;5840;46.894;15.542;2023-10-31T07:00:27;13.80;99.90
11569;DHT22;5840;46.894;15.542;2023-10-31T07:02:54;13.80;99.90
11569;DHT22;5840;46.894;15.542;2023-10-31T07:05:21;13.80;99.90
11569;DHT22;5840;46.894;15.542;2023-10-31T07:07:48;13.80;99.90
11569;DHT22;5840;46.894;15.542;2023-10-31T07:10:15;13.80;99.90
11569;DHT22;5840;46.894;15.542;2023-10-31T07:12:42;13.70;99.90
11569;DHT22;5840;46.894;15.542;2023-10-31T07:15:10;13.70;99.90
11569;DHT22;5840;46.894;15.542;2023-10-31T07:17:37;13.70;99.90
11569;DHT22;5840;46.894;15.542;2023-10-31T07:20:06;13.70;99.90
11569;DHT22;5840;46.894;15.542;2023-10-31T07:22:33;13.70;99.90
11569;DHT22;5840;46.894;15.542;2023-10-31T07:25:00;13.70;99.90
11569;DHT22;5840;46.894;15.542;2023-10-31T07:27:28;13.70;99.90
11569;DHT22;5840;46.894;15.542;2023-10-31T07:29:55;13.70;99.90
11569;DHT22;5840;46.894;15.542;2023-10-31T07:32:24;13.70;99.90
11569;DHT22;5840;46.894;15.542;2023-10-31T07:34:51;13.60;99.90
11569;DHT22;5840;46.894;15.542;2023-10-31T07:37:18;13.70;99.90
11569;DHT22;5840;46.894;15.542;2023-10-31T07:39:45;13.70;99.90
11569;DHT22;5840;46.894;15.542;2023-10-31T07:42:12;13.70;99.90
11569;DHT22;5840;46.894;15.542;2023-10-31T07:44:39;13.70;99.90
11569;DHT22;5840;46.894;15.542;2023-10-31T07:47:06;13.80;99.90
11569;DHT22;5840;46.894;15.542;2023-10-31T07:49:34;13.80;99.90
11569;DHT22;5840;46.894;15.542;2023-10-31T07:52:01;13.90;99.90
11569;DHT22;5840;46.894;15.542;2023-10-31T07:54:28;13.90;99.90
11569;DHT22;5840;46.894;15.542;2023-10-31T07:56:55;13.90;99.90
11569;DHT22;5840;46.894;15.542;2023-10-31T07:59:22;13.90;99.90
11569;DHT22;5840;46.894;15.542;2023-10-31T08:01:49;14.00;99.90
11569;DHT22;5840;46.894;15.542;2023-10-31T08:04:17;14.00;99.90
11569;DHT22;5840;46.894;15.542;2023-10-31T08:06:46;14.10;99.90
11569;DHT22;5840;46.894;15.542;2023-10-31T08:09:12;14.20;99.90
11569;DHT22;5840;46.894;15.542;2023-10-31T08:11:41;14.20;99.90
11569;DHT22;5840;46.894;15.542;2023-10-31T08:14:09;14.30;99.90
11569;DHT22;5840;46.894;15.542;2023-10-31T08:16:36;14.40;99.90
11569;DHT22;5840;46.894;15.542;2023-10-31T08:19:03;14.40;99.90
11569;DHT22;5840;46.894;15.542;2023-10-31T08:21:30;14.40;99.90
11569;DHT22;5840;46.894;15.542;2023-10-31T08:24:02;14.50;99.90
11569;DHT22;5840;46.894;15.542;2023-10-31T08:26:29;14.50;99.90
11569;DHT22;5840;46.894;15.542;2023-10-31T08:28:57;14.50;99.90
11569;DHT22;5840;46.894;15.542;2023-10-31T08:31:24;14.50;99.90
11569;DHT22;5840;46.894;15.542;2023-10-31T08:33:50;14.50;99.90
11569;DHT22;5840;46.894;15.542;2023-10-31T08:36:17;14.50;99.90
11569;DHT22;5840;46.894;15.542;2023-10-31T08:38:45;14.50;99.90
11569;DHT22;5840;46.894;15.542;2023-10-31T08:41:13;14.40;99.90
11569;DHT22;5840;46.894;15.542;2023-10-31T08:43:45;14.40;99.90
11569;DHT22;5840;46.894;15.542;2023-10-31T08:46:12;14.40;99.90
11569;DHT22;5840;46.894;15.542;2023-10-31T08:48:39;14.40;99.90
11569;DHT22;5840;46.894;15.542;2023-10-31T08:51:06;14.40;99.90
11569;DHT22;5840;46.894;15.542;2023-10-31T08:53:33;14.40;99.90
11569;DHT22;5840;46.894;15.542;2023-10-31T08:56:00;14.30;99.90
11569;DHT22;5840;46.894;15.542;2023-10-31T08:58:29;14.30;99.90
11569;DHT22;5840;46.894;15.542;2023-10-31T09:00:55;14.30;99.90
11569;DHT22;5840;46.894;15.542;2023-10-31T09:03:23;14.30;99.90
11569;DHT22;5840;46.894;15.542;2023-10-31T09:05:49;14.30;99.90
11569;DHT22;5840;46.894;15.542;2023-10-31T09:08:16;14.30;99.90
11569;DHT22;5840;46.894;15.542;2023-10-31T09:10:44;14.20;99.90
11569;DHT22;5840;46.894;15.542;2023-10-31T09:13:12;14.20;99.90
11569;DHT22;5840;46.894;15.542;2023-10-31T09:15:41;14.20;99.90
11569;DHT22;5840;46.894;15.542;2023-10-31T09:18:08;14.10;99.90
11569;DHT22;5840;46.894;15.542;2023-10-31T09:20:35;14.10;99.90
11569;DHT22;5840;46.894;15.542;2023-10-31T09:23:02;14.10;99.90
11569;DHT22;5840;46.894;15.542;2023-10-31T09:25:29;14.10;99.90
11569;DHT22;5840;46.894;15.542;2023-10-31T09:27:57;14.00;99.90
11569;DHT22;5840;46.894;15.542;2023-10-31T09:30:25;14.10;99.90
11569;DHT22;5840;46.894;15.542;2023-10-31T09:32:53;14.00;99.90
11569;DHT22;5840;46.894;15.542;2023-10-31T09:35:20;14.10;99.90
11569;DHT22;5840;46.894;15.542;2023-10-31T09:37:47;14.00;99.90
11569;DHT22;5840;46.894;15.542;2023-10-31T09:40:15;13.90;99.90
11569;DHT22;5840;46.894;15.542;2023-10-31T09:42:43;13.80;99.90
11569;DHT22;5840;46.894;15.542;2023-10-31T09:45:10;13.60;99.90
11569;DHT22;5840;46.894;15.542;2023-10-31T09:47:37;13.30;99.90
11569;DHT22;5840;46.894;15.542;2023-10-31T09:50:06;13.20;99.90
11569;DHT22;5840;46.894;15.542;2023-10-31T09:52:35;13.10;99.90
11569;DHT22;5840;46.894;15.542;2023-10-31T09:55:03;13.10;99.90
11569;DHT22;5840;46.894;15.542;2023-10-31T09:57:30;13.00;99.90
11569;DHT22;5840;46.894;15.542;2023-10-31T09:59:57;13.00;99.90
11569;DHT22;5840;46.894;15.542;2023-10-31T10:02:24;13.00;99.90
11569;DHT22;5840;46.894;15.542;2023-10-31T10:04:52;12.90;99.90
11569;DHT22;5840;46.894;15.542;2023-10-31T10:07:20;12.90;99.90
11569;DHT22;5840;46.894;15.542;2023-10-31T10:09:47;12.90;99.90
11569;DHT22;5840;46.894;15.542;2023-10-31T10:12:16;12.90;99.90
11569;DHT22;5840;46.894;15.542;2023-10-31T10:14:44;12.80;99.90
11569;DHT22;5840;46.894;15.542;2023-10-31T10:17:15;12.80;99.90
11569;DHT22;5840;46.894;15.542;2023-10-31T10:19:43;12.70;99.90
11569;DHT22;5840;46.894;15.542;2023-10-31T10:22:10;12.60;99.90
11569;DHT22;5840;46.894;15.542;2023-10-31T10:24:39;12.60;99.90
11569;DHT22;5840;46.894;15.542;2023-10-31T10:27:07;12.50;99.90
11569;DHT22;5840;46.894;15.542;2023-10-31T10:29:34;12.50;99.90
11569;DHT22;5840;46.894;15.542;2023-10-31T10:32:05;12.50;99.90
11569;DHT22;5840;46.894;15.542;2023-10-31T10:34:34;12.50;99.90
11569;DHT22;5840;46.894;15.542;2023-10-31T10:37:01;12.50;99.90
11569;DHT22;5840;46.894;15.542;2023-10-31T10:39:32;12.50;99.90
11569;DHT22;5840;46.894;15.542;2023-10-31T10:42:03;12.50;99.90
11569;DHT22;5840;46.894;15.542;2023-10-31T10:44:33;12.50;99.90
11569;DHT22;5840;46.894;15.542;2023-10-31T10:47:02;12.60;99.90
11569;DHT22;5840;46.894;15.542;2023-10-31T10:49:33;12.60;99.90
11569;DHT22;5840;46.894;15.542;2023-10-31T10:52:12;12.60;99.90
11569;DHT22;5840;46.894;15.542;2023-10-31T10:54:45;12.60;99.90
11569;DHT22;5840;46.894;15.542;2023-10-31T10:57:23;12.60;99.90
11569;DHT22;5840;46.894;15.542;2023-10-31T10:59:52;12.50;99.90
11569;DHT22;5840;46.894;15.542;2023-10-31T11:02:22;12.50;99.90
11569;DHT22;5840;46.894;15.542;2023-10-31T11:04:49;12.50;99.90
11569;DHT22;5840;46.894;15.542;2023-10-31T11:07:18;12.50;99.90
11569;DHT22;5840;46.894;15.542;2023-10-31T11:09:46;12.50;99.90
11569;DHT22;5840;46.894;15.542;2023-10-31T11:12:17;12.50;99.90
11569;DHT22;5840;46.894;15.542;2023-10-31T11:14:45;12.60;99.90
11569;DHT22;5840;46.894;15.542;2023-10-31T11:17:21;12.70;99.90
11569;DHT22;5840;46.894;15.542;2023-10-31T11:19:50;12.80;99.90
11569;DHT22;5840;46.894;15.542;2023-10-31T11:22:18;12.80;99.90
11569;DHT22;5840;46.894;15.542;2023-10-31T11:24:45;12.90;99.90
11569;DHT22;5840;46.894;15.542;2023-10-31T11:27:12;12.90;99.90
11569;DHT22;5840;46.894;15.542;2023-10-31T11:29:40;12.90;99.90
11569;DHT22;5840;46.894;15.542;2023-10-31T11:32:08;13.00;99.90
11569;DHT22;5840;46.894;15.542;2023-10-31T11:34:38;13.00;99.90
11569;DHT22;5840;46.894;15.542;2023-10-31T11:37:19;13.00;99.90
11569;DHT22;5840;46.894;15.542;2023-10-31T11:40:20;13.00;99.90
11569;DHT22;5840;46.894;15.542;2023-10-31T11:42:48;13.10;99.90
11569;DHT22;5840;46.894;15.542;2023-10-31T11:45:33;13.20;99.90
11569;DHT22;5840;46.894;15.542;2023-10-31T11:48:00;13.30;99.90
11569;DHT22;5840;46.894;15.542;2023-10-31T11:50:27;13.30;99.90
11569;DHT22;5840;46.894;15.542;2023-10-31T11:53:05;13.40;99.90
11569;DHT22;5840;46.894;15.542;2023-10-31T11:55:34;13.40;99.90
11569;DHT22;5840;46.894;15.542;2023-10-31T11:58:16;13.40;99.90
11569;DHT22;5840;46.894;15.542;2023-10-31T12:00:45;13.30;99.90
11569;DHT22;5840;46.894;15.542;2023-10-31T12:03:12;13.20;99.90
11569;DHT22;5840;46.894;15.542;2023-10-31T12:05:39;13.20;99.90
11569;DHT22;5840;46.894;15.542;2023-10-31T12:08:06;13.10;99.90
11569;DHT22;5840;46.894;15.542;2023-10-31T12:10:33;13.10;99.90
11569;DHT22;5840;46.894;15.542;2023-10-31T12:13:00;13.20;99.90
11569;DHT22;5840;46.894;15.542;2023-10-31T12:15:27;13.20;99.90
11569;DHT22;5840;46.894;15.542;2023-10-31T12:17:59;13.20;99.90
11569;DHT22;5840;46.894;15.542;2023-10-31T12:20:26;13.10;99.90
11569;DHT22;5840;46.894;15.542;2023-10-31T12:23:03;13.00;99.90
11569;DHT22;5840;46.894;15.542;2023-10-31T12:25:30;12.90;99.90
11569;DHT22;5840;46.894;15.542;2023-10-31T12:28:00;12.80;99.90
11569;DHT22;5840;46.894;15.542;2023-10-31T12:30:27;12.80;99.90
11569;DHT22;5840;46.894;15.542;2023-10-31T12:32:55;12.70;99.90
11569;DHT22;5840;46.894;15.542;2023-10-31T12:35:26;12.60;99.90
11569;DHT22;5840;46.894;15.542;2023-10-31T12:37:53;12.50;99.90
11569;DHT22;5840;46.894;15.542;2023-10-31T12:40:24;12.50;99.90
11569;DHT22;5840;46.894;15.542;2023-10-31T12:42:52;12.40;99.90
11569;DHT22;5840;46.894;15.542;2023-10-31T12:45:19;12.30;99.90
11569;DHT22;5840;46.894;15.542;2023-10-31T12:48:00;12.20;99.90
11569;DHT22;5840;46.894;15.542;2023-10-31T12:50:29;12.10;99.90
11569;DHT22;5840;46.894;15.542;2023-10-31T12:52:57;12.00;99.90
11569;DHT22;5840;46.894;15.542;2023-10-31T12:55:26;11.90;99.90
11569;DHT22;5840;46.894;15.542;2023-10-31T12:57:53;11.90;99.90
11569;DHT22;5840;46.894;15.542;2023-10-31T13:00:22;11.70;99.90
11569;DHT22;5840;46.894;15.542;2023-10-31T13:02:59;11.70;99.90
11569;DHT22;5840;46.894;15.542;2023-10-31T13:05:28;11.60;99.90
11569;DHT22;5840;46.894;15.542;2023-10-31T13:07:57;11.60;99.90
11569;DHT22;5840;46.894;15.542;2023-10-31T13:10:26;11.50;99.90
11569;DHT22;5840;46.894;15.542;2023-10-31T13:12:54;11.40;99.90
11569;DHT22;5840;46.894;15.542;2023-10-31T13:15:22;11.30;99.90
11569;DHT22;5840;46.894;15.542;2023-10-31T13:17:50;11.20;99.90
11569;DHT22;5840;46.894;15.542;2023-10-31T13:20:18;11.10;99.90
11569;DHT22;5840;46.894;15.542;2023-10-31T13:22:46;11.00;99.90
11569;DHT22;5840;46.894;15.542;2023-10-31T13:25:14;11.00;99.90
11569;DHT22;5840;46.894;15.542;2023-10-31T13:27:43;10.90;99.90
11569;DHT22;5840;46.894;15.542;2023-10-31T13:30:11;10.90;99.90
11569;DHT22;5840;46.894;15.542;2023-10-31T13:32:39;10.90;99.90
11569;DHT22;5840;46.894;15.542;2023-10-31T13:35:06;10.80;99.90
11569;DHT22;5840;46.894;15.542;2023-10-31T13:37:35;10.80;99.90
11569;DHT22;5840;46.894;15.542;2023-10-31T13:40:04;10.70;99.90
11569;DHT22;5840;46.894;15.542;2023-10-31T13:42:34;10.70;99.90
11569;DHT22;5840;46.894;15.542;2023-10-31T13:45:00;10.60;99.90
11569;DHT22;5840;46.894;15.542;2023-10-31T13:47:27;10.50;99.90
11569;DHT22;5840;46.894;15.542;2023-10-31T13:49:55;10.50;99.90
11569;DHT22;5840;46.894;15.542;2023-10-31T13:52:22;10.40;99.90
11569;DHT22;5840;46.894;15.542;2023-10-31T13:54:49;10.40;99.90
11569;DHT22;5840;46.894;15.542;2023-10-31T13:57:18;10.40;99.90
11569;DHT22;5840;46.894;15.542;2023-10-31T13:59:44;10.40;99.90
11569;DHT22;5840;46.894;15.542;2023-10-31T14:02:11;10.40;99.90
11569;DHT22;5840;46.894;15.542;2023-10-31T14:04:38;10.40;99.90
11569;DHT22;5840;46.894;15.542;2023-10-31T14:07:05;10.30;99.90
11569;DHT22;5840;46.894;15.542;2023-10-31T14:09:32;10.40;99.90
11569;DHT22;5840;46.894;15.542;2023-10-31T14:11:59;10.40;99.90
11569;DHT22;5840;46.894;15.542;2023-10-31T14:14:27;10.30;99.90
11569;DHT22;5840;46.894;15.542;2023-10-31T14:16:54;10.40;99.90
11569;DHT22;5840;46.894;15.542;2023-10-31T14:19:21;10.30;99.90
11569;DHT22;5840;46.894;15.542;2023-10-31T14:21:48;10.30;99.90
11569;DHT22;5840;46.894;15.542;2023-10-31T14:24:15;10.30;99.90
11569;DHT22;5840;46.894;15.542;2023-10-31T14:26:42;10.30;99.90
11569;DHT22;5840;46.894;15.542;2023-10-31T14:29:09;10.20;99.90
11569;DHT22;5840;46.894;15.542;2023-10-31T14:31:41;10.20;99.90
11569;DHT22;5840;46.894;15.542;2023-10-31T14:34:08;10.20;99.90
11569;DHT22;5840;46.894;15.542;2023-10-31T14:36:35;10.10;99.90
11569;DHT22;5840;46.894;15.542;2023-10-31T14:39:02;10.20;99.90
11569;DHT22;5840;46.894;15.542;2023-10-31T14:41:30;10.20;99.90
11569;DHT22;5840;46.894;15.542;2023-10-31T14:43:59;10.10;99.90
11569;DHT22;5840;46.894;15.542;2023-10-31T14:46:27;10.10;99.90
11569;DHT22;5840;46.894;15.542;2023-10-31T14:48:55;10.10;99.90
11569;DHT22;5840;46.894;15.542;2023-10-31T14:51:22;10.10;99.90
11569;DHT22;5840;46.894;15.542;2023-10-31T14:53:49;10.10;99.90
11569;DHT22;5840;46.894;15.542;2023-10-31T14:56:15;10.20;99.90
11569;DHT22;5840;46.894;15.542;2023-10-31T14:58:42;10.20;99.90
11569;DHT22;5840;46.894;15.542;2023-10-31T15:01:09;10.20;99.90
11569;DHT22;5840;46.894;15.542;2023-10-31T15:03:36;10.20;99.90
11569;DHT22;5840;46.894;15.542;2023-10-31T15:06:05;10.20;99.90
11569;DHT22;5840;46.894;15.542;2023-10-31T15:08:33;10.20;99.90
11569;DHT22;5840;46.894;15.542;2023-10-31T15:11:00;10.30;99.90
11569;DHT22;5840;46.894;15.542;2023-10-31T15:13:27;10.30;99.90
11569;DHT22;5840;46.894;15.542;2023-10-31T15:15:54;10.20;99.90
11569;DHT22;5840;46.894;15.542;2023-10-31T15:18:20;10.20;99.90
11569;DHT22;5840;46.894;15.542;2023-10-31T15:20:47;10.20;99.90
11569;DHT22;5840;46.894;15.542;2023-10-31T15:23:16;10.20;99.90
11569;DHT22;5840;46.894;15.542;2023-10-31T15:25:43;10.20;99.90
11569;DHT22;5840;46.894;15.542;2023-10-31T15:28:10;10.20;99.90
11569;DHT22;5840;46.894;15.542;2023-10-31T15:30:37;10.20;99.90
11569;DHT22;5840;46.894;15.542;2023-10-31T15:33:04;10.20;99.90